Time;durP1;ratioP1;P1;durP2;ratioP2;P2;SDS_P1;SDS_P2;PMS_P1;PMS_P2;Temp;Humidity;BMP_temperature;BMP_pressure;BME280_temperature;BME280_humidity;BME280_pressure;Samples;Min_cycle;Max_cycle;Signal;HPM_P1;HPM_P2
2023/02/15 00:01:35;;;;;;;8.27;5.20;;;3.60;99.90;;;;;;4956310;28;20047;-83
2023/02/15 00:04:03;;;;;;;8.38;5.65;;;3.60;99.90;;;;;;4958200;28;20138;-83
2023/02/15 00:06:30;;;;;;;8.63;6.28;;;3.60;99.90;;;;;;4956651;28;20359;-82
2023/02/15 00:08:57;;;;;;;6.57;4.90;;;3.60;99.90;;;;;;4957166;28;20058;-83
2023/02/15 00:11:39;;;;;;;7.43;5.28;;;3.60;99.90;;;;;;4956476;28;20051;-83
2023/02/15 00:14:48;;;;;;;6.60;4.72;;;3.60;99.90;;;;;;4968024;28;20180;-84
2023/02/15 00:17:15;;;;;;;6.10;4.70;;;3.60;99.90;;;;;;4933064;28;20062;-83
2023/02/15 00:19:42;;;;;;;6.95;5.03;;;3.60;99.90;;;;;;4957233;28;20359;-82
2023/02/15 00:22:09;;;;;;;5.70;4.65;;;3.60;99.90;;;;;;4939730;29;20145;-82
2023/02/15 00:24:36;;;;;;;7.03;4.95;;;3.50;99.90;;;;;;4953603;28;20047;-83
2023/02/15 00:27:02;;;;;;;7.85;4.70;;;3.50;99.90;;;;;;4924381;29;20307;-83
2023/02/15 00:29:29;;;;;;;7.20;5.40;;;3.50;99.90;;;;;;4937029;29;20696;-83
2023/02/15 00:31:56;;;;;;;5.47;4.30;;;3.50;99.90;;;;;;4951894;28;20055;-84
2023/02/15 00:34:27;;;;;;;6.10;4.95;;;3.50;99.90;;;;;;4956621;28;20070;-84
2023/02/15 00:36:54;;;;;;;6.28;4.78;;;3.50;99.90;;;;;;4940902;29;20058;-83
2023/02/15 00:39:21;;;;;;;6.05;4.65;;;3.50;99.90;;;;;;4956697;28;20150;-83
2023/02/15 00:41:48;;;;;;;7.43;5.35;;;3.50;99.90;;;;;;4957395;28;20521;-83
2023/02/15 00:44:15;;;;;;;6.15;4.55;;;3.60;99.90;;;;;;4955768;28;20047;-83
2023/02/15 00:46:42;;;;;;;6.72;4.75;;;3.60;99.90;;;;;;4938686;29;20048;-82
2023/02/15 00:49:09;;;;;;;6.57;4.93;;;3.70;99.90;;;;;;4954362;28;20062;-82
2023/02/15 00:51:36;;;;;;;5.60;3.97;;;3.70;99.90;;;;;;4954766;28;20062;-83
2023/02/15 00:54:03;;;;;;;6.72;4.57;;;3.70;99.90;;;;;;4937324;29;20468;-83
2023/02/15 00:56:30;;;;;;;6.05;4.47;;;3.70;99.90;;;;;;4939727;29;20054;-83
2023/02/15 00:58:57;;;;;;;6.93;5.10;;;3.80;99.90;;;;;;4924368;29;20051;-83
2023/02/15 01:01:25;;;;;;;6.88;5.15;;;3.90;99.90;;;;;;4939461;29;20059;-83
2023/02/15 01:03:52;;;;;;;5.88;4.70;;;4.00;99.90;;;;;;4956103;28;20058;-83
2023/02/15 01:06:19;;;;;;;5.75;4.22;;;4.00;99.90;;;;;;4955740;28;20384;-83
2023/02/15 01:08:46;;;;;;;6.78;4.78;;;4.10;99.90;;;;;;4968790;28;20054;-83
2023/02/15 01:11:15;;;;;;;6.93;5.00;;;4.10;99.90;;;;;;4960117;28;20230;-83
2023/02/15 01:13:41;;;;;;;6.60;4.93;;;4.20;99.90;;;;;;4939400;28;20209;-83
2023/02/15 01:16:08;;;;;;;5.65;4.35;;;4.20;99.90;;;;;;4955745;28;20169;-83
2023/02/15 01:18:35;;;;;;;6.88;5.00;;;4.20;99.90;;;;;;4923950;29;20047;-83
2023/02/15 01:21:13;;;;;;;6.90;5.40;;;4.30;99.90;;;;;;4948924;28;20531;-83
2023/02/15 01:23:41;;;;;;;5.57;3.92;;;4.30;99.90;;;;;;4939998;29;20206;-83
2023/02/15 01:26:09;;;;;;;5.63;4.57;;;4.30;99.90;;;;;;4939725;29;20322;-83
2023/02/15 01:28:36;;;;;;;6.70;4.93;;;4.30;99.90;;;;;;4955960;28;20058;-83
2023/02/15 01:31:13;;;;;;;7.07;4.90;;;4.30;99.90;;;;;;4956386;28;20086;-83
2023/02/15 01:33:43;;;;;;;6.55;4.25;;;4.40;99.90;;;;;;4955333;28;20132;-83
2023/02/15 01:36:10;;;;;;;5.90;4.18;;;4.40;99.90;;;;;;4956298;28;20055;-83
2023/02/15 01:38:39;;;;;;;6.28;4.60;;;4.40;99.90;;;;;;4973092;28;20134;-83
2023/02/15 01:43:58;;;;;;;5.85;3.97;;;4.50;99.90;;;;;;4963818;28;20106;-83
2023/02/15 01:46:40;;;;;;;5.88;3.90;;;4.50;99.90;;;;;;4971549;28;20055;-83
2023/02/15 01:49:11;;;;;;;5.90;4.30;;;4.50;99.90;;;;;;4957380;28;20047;-83
2023/02/15 01:51:38;;;;;;;6.40;4.35;;;4.50;99.90;;;;;;4927472;29;20055;-83
2023/02/15 01:54:26;;;;;;;5.97;4.50;;;4.50;99.90;;;;;;4942747;29;20106;-83
2023/02/15 01:56:53;;;;;;;5.85;4.53;;;4.40;99.90;;;;;;4927075;29;20404;-82
2023/02/15 01:59:21;;;;;;;7.18;4.72;;;4.40;99.90;;;;;;4943659;28;20151;-83
2023/02/15 02:01:48;;;;;;;7.07;5.10;;;4.30;99.90;;;;;;4946018;28;20062;-83
2023/02/15 02:04:20;;;;;;;6.28;4.38;;;4.30;99.90;;;;;;4946544;28;20444;-83
2023/02/15 02:06:47;;;;;;;5.90;4.45;;;4.20;99.90;;;;;;4958945;28;20055;-83
2023/02/15 02:09:14;;;;;;;6.82;4.88;;;4.20;99.90;;;;;;4928080;29;20052;-83
2023/02/15 02:11:41;;;;;;;5.95;4.57;;;4.20;99.90;;;;;;4957556;28;20178;-83
2023/02/15 02:14:08;;;;;;;7.25;5.03;;;4.20;99.90;;;;;;4961329;28;20059;-82
2023/02/15 02:16:38;;;;;;;7.00;4.78;;;4.20;99.90;;;;;;4946814;29;20051;-83
2023/02/15 02:19:24;;;;;;;8.18;5.45;;;4.20;99.90;;;;;;4962806;28;20081;-83
2023/02/15 02:22:15;;;;;;;6.35;4.93;;;4.20;99.90;;;;;;4942632;28;20431;-83
2023/02/15 02:25:04;;;;;;;8.43;4.97;;;4.10;99.90;;;;;;4944604;29;20051;-83
2023/02/15 02:27:45;;;;;;;7.28;5.10;;;4.00;99.90;;;;;;4936947;29;20055;-83
2023/02/15 02:33:01;;;;;;;6.85;4.90;;;4.00;99.90;;;;;;4987910;23;20065;-84
2023/02/15 02:35:36;;;;;;;7.68;5.28;;;3.90;99.90;;;;;;4966690;28;20055;-84
2023/02/15 02:38:09;;;;;;;5.93;4.22;;;4.00;99.90;;;;;;4953712;28;20122;-84
2023/02/15 02:40:53;;;;;;;6.30;4.50;;;4.00;99.90;;;;;;4972678;28;20047;-84
2023/02/15 02:43:33;;;;;;;7.15;5.38;;;3.90;99.90;;;;;;4974075;28;20133;-84
2023/02/15 02:46:05;;;;;;;6.50;4.45;;;3.90;99.90;;;;;;4970573;28;20081;-83
2023/02/15 02:48:32;;;;;;;6.18;4.22;;;3.90;99.90;;;;;;4270044;28;10000723;-83
2023/02/15 02:50:59;;;;;;;6.93;5.38;;;3.90;99.90;;;;;;4948680;28;20132;-84
2023/02/15 02:53:27;;;;;;;6.68;4.57;;;3.90;99.90;;;;;;4952577;28;20158;-83
2023/02/15 02:55:59;;;;;;;6.22;4.55;;;3.90;99.90;;;;;;4956791;28;20133;-83
2023/02/15 02:58:31;;;;;;;8.07;6.00;;;3.90;99.90;;;;;;4950294;28;20082;-83
2023/02/15 03:01:01;;;;;;;7.85;5.47;;;3.90;99.90;;;;;;4954785;28;20052;-82
2023/02/15 03:03:30;;;;;;;8.45;6.25;;;3.90;99.90;;;;;;4952061;28;20771;-82
2023/02/15 03:06:00;;;;;;;6.93;5.25;;;3.80;99.90;;;;;;4957700;28;20050;-82
2023/02/15 03:08:34;;;;;;;7.60;5.47;;;3.80;99.90;;;;;;4952563;28;20044;-82
2023/02/15 03:11:02;;;;;;;8.23;5.40;;;3.70;99.90;;;;;;4947578;28;20077;-83
2023/02/15 03:13:29;;;;;;;7.13;5.07;;;3.70;99.90;;;;;;4968310;28;20355;-83
2023/02/15 03:18:52;;;;;;;7.78;5.57;;;3.60;99.90;;;;;;4969937;28;20394;-83
2023/02/15 03:21:25;;;;;;;10.73;6.82;;;3.50;99.90;;;;;;4961360;28;20044;-84
2023/02/15 03:23:54;;;;;;;8.57;6.05;;;3.50;99.90;;;;;;4956506;28;20129;-83
2023/02/15 03:26:21;;;;;;;7.78;5.20;;;3.50;99.90;;;;;;4938158;28;20136;-83
2023/02/15 03:28:50;;;;;;;8.68;5.88;;;3.40;99.90;;;;;;4937255;28;20047;-82
2023/02/15 03:31:17;;;;;;;8.05;5.80;;;3.40;99.90;;;;;;4937677;28;20656;-83
2023/02/15 03:33:53;;;;;;;7.50;5.65;;;3.30;99.90;;;;;;4964096;28;20149;-83
2023/02/15 03:36:29;;;;;;;8.68;5.65;;;3.30;99.90;;;;;;4954354;28;20505;-83
2023/02/15 03:39:04;;;;;;;7.78;5.72;;;3.30;99.90;;;;;;4969593;28;20073;-84
2023/02/15 03:41:33;;;;;;;7.90;5.60;;;3.20;99.90;;;;;;4970425;28;20055;-84
2023/02/15 03:44:08;;;;;;;9.40;5.60;;;3.20;99.90;;;;;;4953534;28;20061;-84
2023/02/15 03:46:51;;;;;;;7.88;5.68;;;3.10;99.90;;;;;;4954058;28;20644;-84
2023/02/15 03:49:39;;;;;;;9.38;6.28;;;3.10;99.90;;;;;;4939789;28;20050;-83
2023/02/15 03:52:06;;;;;;;8.57;5.75;;;3.10;99.90;;;;;;4954345;28;20082;-84
2023/02/15 03:54:43;;;;;;;7.90;6.32;;;3.10;99.90;;;;;;4948970;28;20090;-83
2023/02/15 04:03:15;;;;;;;6.95;5.32;;;3.00;99.90;;;;;;4965177;28;20506;-84
2023/02/15 04:05:43;;;;;;;8.57;5.82;;;2.90;99.90;;;;;;4968860;28;20139;-82
2023/02/15 04:08:10;;;;;;;7.05;5.63;;;2.90;99.90;;;;;;4954377;28;20101;-83
2023/02/15 04:10:52;;;;;;;8.93;6.07;;;3.00;99.90;;;;;;4952814;28;20054;-83
2023/02/15 04:13:23;;;;;;;8.05;5.47;;;2.90;99.90;;;;;;4962413;28;20117;-83
2023/02/15 04:16:03;;;;;;;9.32;6.82;;;2.90;99.90;;;;;;4949435;29;20074;-85
2023/02/15 04:27:00;;;;;;;7.85;5.70;;;3.00;99.90;;;;;;4947304;28;20157;-84
2023/02/15 04:29:27;;;;;;;8.90;5.88;;;3.00;99.90;;;;;;4968491;28;20054;-82
2023/02/15 04:31:55;;;;;;;9.15;6.22;;;2.90;99.90;;;;;;4968371;28;20501;-83
2023/02/15 04:34:22;;;;;;;10.38;7.05;;;3.00;99.90;;;;;;4949793;29;20141;-83
2023/02/15 04:36:50;;;;;;;11.20;7.03;;;3.00;99.90;;;;;;4946082;28;20465;-85
2023/02/15 04:39:17;;;;;;;10.43;7.03;;;3.00;99.90;;;;;;4950153;28;20055;-83
2023/02/15 04:41:44;;;;;;;8.73;6.47;;;3.00;99.90;;;;;;4962425;28;20053;-83
2023/02/15 04:44:11;;;;;;;9.60;7.05;;;3.00;99.90;;;;;;4932221;29;20043;-83
2023/02/15 04:46:38;;;;;;;9.70;7.22;;;3.00;99.90;;;;;;4940852;28;20147;-83
2023/02/15 04:49:05;;;;;;;10.18;6.35;;;3.00;99.90;;;;;;4951817;28;20109;-84
2023/02/15 04:51:32;;;;;;;9.52;6.72;;;3.00;99.90;;;;;;4952370;28;20162;-83
2023/02/15 04:53:59;;;;;;;10.35;7.25;;;3.10;99.90;;;;;;4968044;28;20113;-83
2023/02/15 04:56:26;;;;;;;10.32;6.90;;;3.10;99.90;;;;;;4965961;28;20147;-83
2023/02/15 04:58:54;;;;;;;8.77;6.38;;;3.10;99.90;;;;;;4947880;28;20498;-83
2023/02/15 05:01:21;;;;;;;9.75;6.80;;;3.20;99.90;;;;;;4966178;28;20058;-83
2023/02/15 05:03:48;;;;;;;10.85;7.70;;;3.20;99.90;;;;;;4951853;28;20058;-83
2023/02/15 05:06:14;;;;;;;10.05;6.38;;;3.20;99.90;;;;;;4948857;29;20052;-83
2023/02/15 05:08:41;;;;;;;8.55;6.50;;;3.30;99.90;;;;;;4963688;28;20125;-83
2023/02/15 05:11:08;;;;;;;9.80;6.97;;;3.30;99.90;;;;;;4963146;28;20083;-83
2023/02/15 05:13:36;;;;;;;9.43;6.75;;;3.40;99.90;;;;;;4957669;28;20054;-82
2023/02/15 05:16:03;;;;;;;8.57;6.32;;;3.30;99.90;;;;;;4951540;28;20055;-81
2023/02/15 05:18:30;;;;;;;9.20;7.03;;;3.40;99.90;;;;;;4948492;28;20407;-83
2023/02/15 05:20:57;;;;;;;10.70;7.75;;;3.40;99.90;;;;;;4955574;28;20050;-83
2023/02/15 05:23:24;;;;;;;9.35;6.50;;;3.40;99.90;;;;;;4959861;28;20449;-84
2023/02/15 05:28:37;;;;;;;9.43;6.53;;;3.50;99.90;;;;;;4952251;28;20054;-83
2023/02/15 05:31:11;;;;;;;9.77;6.93;;;3.50;99.90;;;;;;4950884;28;20481;-83
2023/02/15 05:33:38;;;;;;;9.23;7.00;;;3.50;99.90;;;;;;4936916;28;20055;-83
2023/02/15 05:36:06;;;;;;;11.52;8.23;;;3.50;99.90;;;;;;4971535;28;20089;-83
2023/02/15 05:38:33;;;;;;;11.02;8.15;;;3.60;99.90;;;;;;4956078;28;20051;-83
2023/02/15 05:41:00;;;;;;;9.38;6.88;;;3.60;99.90;;;;;;4971620;28;20066;-82
2023/02/15 05:43:27;;;;;;;10.52;7.47;;;3.60;99.90;;;;;;4965104;28;20088;-83
2023/02/15 05:45:54;;;;;;;10.60;7.35;;;3.70;99.90;;;;;;4927911;28;20564;-83
2023/02/15 05:48:23;;;;;;;11.02;7.20;;;3.70;99.90;;;;;;4947098;28;20126;-83
2023/02/15 05:51:07;;;;;;;9.25;7.20;;;3.70;99.90;;;;;;4949548;28;20051;-82
2023/02/15 05:53:36;;;;;;;10.02;7.68;;;3.70;99.90;;;;;;4968136;28;20057;-84
2023/02/15 05:56:04;;;;;;;11.55;8.50;;;3.70;99.90;;;;;;4964039;28;20067;-84
2023/02/15 05:58:33;;;;;;;12.13;8.98;;;3.70;99.90;;;;;;4953251;28;20502;-83
2023/02/15 06:01:06;;;;;;;10.75;7.82;;;3.70;99.90;;;;;;4952445;28;20046;-84
2023/02/15 06:03:33;;;;;;;10.30;7.35;;;3.70;99.90;;;;;;4935920;28;20066;-84
2023/02/15 06:06:00;;;;;;;11.15;8.02;;;3.80;99.90;;;;;;4959886;28;20054;-84
2023/02/15 06:08:27;;;;;;;10.35;7.20;;;3.80;99.90;;;;;;4950871;28;20057;-84
2023/02/15 06:10:54;;;;;;;10.25;7.40;;;3.80;99.90;;;;;;4948070;28;20134;-83
2023/02/15 06:13:22;;;;;;;10.40;7.25;;;3.70;99.90;;;;;;4944050;28;20085;-86
2023/02/15 06:15:48;;;;;;;9.15;7.28;;;3.80;99.90;;;;;;4953575;28;20138;-81
2023/02/15 06:18:15;;;;;;;10.38;7.78;;;3.80;99.90;;;;;;4966461;28;20054;-82
2023/02/15 06:20:44;;;;;;;9.52;7.10;;;3.80;99.90;;;;;;4936492;29;20095;-82
2023/02/15 06:23:12;;;;;;;8.43;6.45;;;3.80;99.90;;;;;;4961843;28;20062;-85
2023/02/15 06:25:39;;;;;;;10.13;7.32;;;3.80;99.90;;;;;;4949955;28;20070;-85
2023/02/15 06:28:06;;;;;;;10.27;6.82;;;3.80;99.90;;;;;;4948838;28;20731;-85
2023/02/15 06:30:33;;;;;;;8.77;6.35;;;3.80;99.90;;;;;;4965750;28;20428;-86
2023/02/15 06:33:01;;;;;;;10.85;7.57;;;3.80;99.90;;;;;;4971285;28;20153;-83
2023/02/15 06:35:28;;;;;;;10.38;7.30;;;3.90;99.90;;;;;;4978123;28;20066;-84
2023/02/15 06:37:55;;;;;;;11.50;7.57;;;3.90;99.90;;;;;;4961868;28;20078;-84
2023/02/15 06:40:22;;;;;;;8.38;5.90;;;4.00;99.90;;;;;;4959155;28;20130;-83
2023/02/15 06:42:49;;;;;;;9.50;6.28;;;4.10;99.90;;;;;;4961000;28;20082;-83
2023/02/15 06:45:16;;;;;;;8.38;6.00;;;4.10;99.90;;;;;;4946256;28;21022;-82
2023/02/15 06:47:43;;;;;;;9.38;6.30;;;4.20;99.90;;;;;;4937499;29;20054;-82
2023/02/15 06:50:10;;;;;;;9.27;6.35;;;4.20;99.90;;;;;;4948801;28;20050;-83
2023/02/15 06:52:37;;;;;;;10.10;6.43;;;4.20;99.90;;;;;;4939598;28;20126;-83
2023/02/15 06:55:05;;;;;;;9.48;6.63;;;4.30;99.90;;;;;;4962958;28;20061;-82
2023/02/15 06:57:33;;;;;;;8.32;6.43;;;4.30;99.90;;;;;;4928010;29;20055;-84
2023/02/15 07:00:00;;;;;;;10.05;6.90;;;4.30;99.90;;;;;;4946448;28;20378;-80
2023/02/15 07:02:26;;;;;;;8.57;6.32;;;4.30;99.90;;;;;;4944317;28;20086;-82
2023/02/15 07:04:53;;;;;;;7.80;5.80;;;4.40;99.90;;;;;;4938117;28;20130;-80
2023/02/15 07:07:20;;;;;;;7.53;5.88;;;4.40;99.90;;;;;;4956462;28;20489;-84
2023/02/15 07:09:47;;;;;;;7.68;5.72;;;4.40;99.90;;;;;;4949305;28;20177;-82
2023/02/15 07:15:20;;;;;;;9.13;6.25;;;4.40;99.90;;;;;;4922193;29;20833;-84
2023/02/15 07:17:48;;;;;;;9.27;6.47;;;4.40;99.90;;;;;;4922616;29;20069;-84
2023/02/15 07:20:20;;;;;;;8.77;6.20;;;4.40;99.90;;;;;;4954972;28;20489;-84
2023/02/15 07:22:47;;;;;;;8.75;5.90;;;4.40;99.90;;;;;;4933765;28;20129;-84
2023/02/15 07:25:14;;;;;;;8.70;5.72;;;4.40;99.90;;;;;;4941118;29;20059;-84
2023/02/15 07:27:44;;;;;;;10.52;6.53;;;4.40;99.90;;;;;;4929417;28;20367;-85
2023/02/15 07:30:13;;;;;;;8.27;5.80;;;4.40;99.90;;;;;;4921584;29;20234;-85
2023/02/15 07:33:22;;;;;;;9.40;5.93;;;4.40;99.90;;;;;;4945868;28;20125;-84
2023/02/15 07:35:30;;;;;;;8.40;5.88;;;4.40;99.90;;;;;;4970189;28;20450;-84
2023/02/15 07:37:57;;;;;;;8.35;6.00;;;4.40;99.90;;;;;;4949260;28;20409;-84
2023/02/15 07:40:25;;;;;;;8.90;6.00;;;4.40;99.90;;;;;;4964853;28;20042;-84
2023/02/15 07:42:54;;;;;;;8.40;6.00;;;4.40;99.90;;;;;;4947102;28;20074;-83
2023/02/15 07:45:21;;;;;;;8.32;5.93;;;4.40;99.90;;;;;;4947971;28;20047;-83
2023/02/15 07:47:48;;;;;;;8.77;6.68;;;4.50;99.90;;;;;;4925049;28;20058;-84
2023/02/15 07:50:15;;;;;;;9.82;6.45;;;4.50;99.90;;;;;;4937967;28;20043;-84
2023/02/15 07:52:42;;;;;;;7.90;6.05;;;4.50;99.90;;;;;;4941528;28;20140;-83
2023/02/15 07:55:12;;;;;;;10.15;7.28;;;4.60;99.90;;;;;;4966134;28;20101;-83
2023/02/15 07:57:48;;;;;;;9.82;7.28;;;4.60;99.90;;;;;;4974999;28;20138;-84
2023/02/15 08:00:16;;;;;;;8.55;5.85;;;4.70;99.90;;;;;;4922576;28;20055;-82
2023/02/15 08:03:14;;;;;;;9.20;6.22;;;4.80;99.90;;;;;;4963147;28;20426;-81
2023/02/15 08:05:42;;;;;;;8.63;6.55;;;4.90;99.90;;;;;;4953364;28;20043;-84
2023/02/15 08:08:29;;;;;;;10.13;6.65;;;5.10;99.90;;;;;;4930033;28;20243;-83
2023/02/15 08:13:55;;;;;;;7.13;5.53;;;5.50;99.90;;;;;;4965830;28;20055;-84
2023/02/15 08:16:22;;;;;;;7.93;5.93;;;5.70;99.90;;;;;;4962644;28;20050;-84
2023/02/15 08:18:49;;;;;;;8.52;5.88;;;5.90;99.90;;;;;;4982006;28;20556;-84
2023/02/15 08:21:16;;;;;;;7.47;5.40;;;6.00;99.90;;;;;;4963995;28;20048;-84
2023/02/15 08:23:43;;;;;;;7.35;5.72;;;6.10;99.90;;;;;;4964182;28;20488;-83
2023/02/15 08:26:09;;;;;;;9.65;6.53;;;6.20;99.90;;;;;;4961361;28;20450;-83
2023/02/15 08:28:36;;;;;;;7.38;5.88;;;6.40;99.90;;;;;;4945585;28;20065;-84
2023/02/15 08:31:10;;;;;;;9.35;7.35;;;6.50;99.90;;;;;;4914371;28;20047;-84
2023/02/15 08:33:37;;;;;;;8.30;6.45;;;6.70;99.90;;;;;;4947771;28;20126;-84
2023/02/15 08:36:06;;;;;;;7.22;5.88;;;6.70;99.90;;;;;;4931988;28;20451;-84
2023/02/15 08:38:33;;;;;;;7.53;5.90;;;6.80;99.90;;;;;;4960782;28;20057;-83
2023/02/15 08:41:38;;;;;;;7.43;5.68;;;6.90;99.90;;;;;;4961668;28;20047;-84
2023/02/15 08:44:07;;;;;;;7.03;5.15;;;7.00;99.90;;;;;;4947829;28;20113;-83
2023/02/15 08:46:35;;;;;;;5.40;4.72;;;7.10;99.90;;;;;;4909530;28;20059;-83
2023/02/15 08:49:02;;;;;;;6.97;5.25;;;7.10;99.90;;;;;;4929709;28;20150;-83
2023/02/15 08:51:33;;;;;;;8.45;5.93;;;7.20;99.90;;;;;;4937934;28;20051;-83
2023/02/15 08:54:04;;;;;;;8.13;7.00;;;7.20;99.90;;;;;;4933619;28;20063;-83
2023/02/15 08:56:54;;;;;;;8.35;6.38;;;7.40;99.90;;;;;;4938988;28;20061;-83
2023/02/15 08:59:22;;;;;;;7.38;6.07;;;7.50;99.90;;;;;;4937954;28;20055;-82
2023/02/15 09:01:50;;;;;;;8.75;6.65;;;7.60;99.90;;;;;;4952227;28;20047;-84
2023/02/15 09:04:17;;;;;;;7.90;6.47;;;7.70;99.90;;;;;;4934091;28;20390;-83
2023/02/15 09:06:45;;;;;;;8.52;6.65;;;7.80;99.90;;;;;;4918154;28;20055;-84
2023/02/15 09:09:16;;;;;;;10.30;7.80;;;7.90;99.90;;;;;;4946178;28;20075;-83
2023/02/15 09:11:43;;;;;;;10.43;8.05;;;8.00;99.90;;;;;;4942560;29;20051;-83
2023/02/15 09:14:15;;;;;;;13.82;9.93;;;8.20;99.90;;;;;;4959333;28;20054;-83
2023/02/15 09:16:48;;;;;;;11.73;9.32;;;8.30;99.90;;;;;;4961897;28;20046;-83
2023/02/15 09:19:17;;;;;;;12.10;9.95;;;8.40;99.90;;;;;;4943006;28;20127;-83
2023/02/15 09:21:44;;;;;;;15.35;11.65;;;8.60;99.90;;;;;;4942450;29;20848;-83
2023/02/15 09:24:12;;;;;;;11.20;9.20;;;8.70;99.90;;;;;;4959710;28;20078;-82
2023/02/15 09:26:41;;;;;;;11.45;9.00;;;8.90;99.90;;;;;;4961105;28;20573;-82
2023/02/15 09:29:09;;;;;;;12.65;10.23;;;9.00;99.90;;;;;;4957429;28;20058;-83
2023/02/15 09:31:43;;;;;;;12.45;9.90;;;9.20;99.90;;;;;;4972216;28;20054;-82
2023/02/15 09:34:12;;;;;;;12.52;10.70;;;9.30;99.90;;;;;;4952583;28;20102;-74
2023/02/15 09:36:39;;;;;;;10.88;8.77;;;9.40;99.90;;;;;;4954058;28;20614;-81
2023/02/15 09:39:09;;;;;;;13.90;10.90;;;9.40;99.90;;;;;;4939560;28;20109;-80
2023/02/15 09:41:43;;;;;;;13.52;11.05;;;9.60;99.90;;;;;;4924549;29;20502;-81
2023/02/15 09:44:25;;;;;;;13.18;10.00;;;9.60;99.90;;;;;;4955408;28;20054;-84
2023/02/15 09:47:07;;;;;;;12.88;10.38;;;9.70;99.90;;;;;;4962081;28;20082;-83
2023/02/15 09:49:47;;;;;;;10.23;8.18;;;9.80;99.90;;;;;;4929210;29;20047;-84
2023/02/15 09:52:49;;;;;;;10.10;8.32;;;9.90;99.90;;;;;;4956040;28;20105;-91
2023/02/15 09:55:41;;;;;;;12.30;8.98;;;10.00;99.90;;;;;;4964768;28;20577;-92
2023/02/15 09:58:33;;;;;;;10.60;9.20;;;10.20;99.90;;;;;;4972244;28;20061;-90
2023/02/15 10:01:09;;;;;;;11.45;10.02;;;10.20;99.90;;;;;;4953572;28;20115;-91
2023/02/15 10:04:14;;;;;;;10.32;8.77;;;10.30;99.90;;;;;;4968303;28;20797;-90
2023/02/15 10:07:01;;;;;;;8.95;7.93;;;10.40;99.90;;;;;;4951883;28;20369;-88
2023/02/15 10:10:09;;;;;;;8.15;7.30;;;10.60;99.90;;;;;;4979003;28;20071;-90
2023/02/15 10:12:59;;;;;;;8.55;6.72;;;10.70;99.90;;;;;;4957682;28;20069;-89
2023/02/15 10:15:41;;;;;;;8.98;7.45;;;10.80;99.90;;;;;;4949259;29;20198;-89
2023/02/15 10:18:29;;;;;;;10.07;8.93;;;10.80;99.90;;;;;;4955889;28;20047;-90
2023/02/15 10:21:20;;;;;;;9.65;8.18;;;10.90;99.90;;;;;;4959149;28;20623;-83
2023/02/15 10:24:00;;;;;;;9.52;7.75;;;10.90;99.90;;;;;;4958591;28;20051;-84
2023/02/15 10:26:31;;;;;;;9.55;8.13;;;10.90;99.90;;;;;;4955519;28;20055;-83
2023/02/15 10:29:06;;;;;;;10.32;9.05;;;10.90;99.90;;;;;;4951160;28;20157;-83
2023/02/15 10:31:42;;;;;;;10.75;8.48;;;10.90;99.90;;;;;;4944249;29;20502;-84
2023/02/15 10:34:39;;;;;;;9.43;8.30;;;10.90;99.90;;;;;;4967688;28;20062;-85
2023/02/15 10:37:32;;;;;;;8.70;7.20;;;10.90;99.90;;;;;;4943706;28;20050;-85
2023/02/15 10:40:02;;;;;;;8.27;6.80;;;10.90;99.90;;;;;;4969886;28;20053;-84
2023/02/15 10:42:55;;;;;;;7.93;6.53;;;10.90;99.90;;;;;;4948726;28;20061;-85
2023/02/15 10:45:41;;;;;;;11.10;7.85;;;10.90;99.90;;;;;;4964436;28;20068;-84
2023/02/15 10:48:14;;;;;;;10.05;7.93;;;10.90;99.90;;;;;;4930607;28;20089;-85
2023/02/15 10:50:48;;;;;;;10.68;7.72;;;10.90;99.90;;;;;;4981438;28;20150;-85
2023/02/15 10:53:30;;;;;;;8.35;6.72;;;11.00;99.90;;;;;;4944248;28;20609;-81
2023/02/15 10:56:07;;;;;;;7.32;6.30;;;11.00;99.90;;;;;;4946369;28;20078;-84
2023/02/15 10:58:47;;;;;;;8.80;7.43;;;11.00;99.90;;;;;;4954435;28;20100;-84
2023/02/15 11:01:23;;;;;;;11.18;8.45;;;11.00;99.90;;;;;;4953891;28;20137;-83
2023/02/15 11:04:10;;;;;;;9.15;7.60;;;11.10;99.90;;;;;;4976171;28;20140;-84
2023/02/15 11:06:39;;;;;;;9.60;7.95;;;11.10;99.90;;;;;;4963652;28;20043;-82
2023/02/15 11:09:12;;;;;;;9.05;7.78;;;11.10;99.90;;;;;;4945450;28;20062;-83
2023/02/15 11:11:42;;;;;;;9.88;7.65;;;11.20;99.90;;;;;;4959085;28;20074;-84
2023/02/15 11:14:40;;;;;;;8.57;7.22;;;11.30;99.90;;;;;;4930515;28;20120;-84
2023/02/15 11:17:11;;;;;;;9.30;7.60;;;11.40;99.90;;;;;;4931838;28;20718;-84
2023/02/15 11:19:41;;;;;;;8.43;6.93;;;11.60;99.90;;;;;;4934362;28;20058;-85
2023/02/15 11:22:09;;;;;;;8.82;7.50;;;11.70;99.90;;;;;;4939197;28;20165;-84
2023/02/15 11:24:41;;;;;;;11.65;7.90;;;11.80;99.90;;;;;;4943144;28;20050;-83
2023/02/15 11:27:20;;;;;;;10.10;8.23;;;11.90;99.90;;;;;;4959636;28;20062;-84
2023/02/15 11:29:58;;;;;;;11.32;9.50;;;12.00;99.90;;;;;;4963075;28;20051;-83
2023/02/15 11:32:32;;;;;;;9.20;7.03;;;12.20;99.90;;;;;;4921021;28;20046;-83
2023/02/15 11:35:11;;;;;;;7.40;6.25;;;12.40;99.90;;;;;;4955810;28;20247;-84
2023/02/15 11:37:46;;;;;;;7.38;5.97;;;12.60;99.90;;;;;;4975166;28;20672;-83
2023/02/15 11:40:28;;;;;;;6.80;5.82;;;12.80;99.90;;;;;;4954927;28;20086;-83
2023/02/15 11:43:06;;;;;;;7.05;6.35;;;13.00;99.90;;;;;;4954748;28;20078;-84
2023/02/15 11:45:36;;;;;;;6.70;6.00;;;13.40;99.90;;;;;;4930485;28;20211;-84
2023/02/15 11:48:09;;;;;;;7.65;5.18;;;13.60;99.90;;;;;;4947960;28;20073;-83
2023/02/15 11:50:36;;;;;;;6.32;5.47;;;13.90;99.90;;;;;;4960182;28;20050;-85
2023/02/15 11:53:27;;;;;;;5.20;4.60;;;13.90;99.90;;;;;;5057694;28;20455;-86
2023/02/15 11:55:54;;;;;;;7.03;5.60;;;14.10;99.90;;;;;;5012917;28;20040;-85
2023/02/15 11:58:33;;;;;;;5.93;4.78;;;14.20;99.90;;;;;;5026428;28;20053;-85
2023/02/15 12:01:11;;;;;;;7.18;5.97;;;14.30;99.90;;;;;;5040569;28;20403;-89
2023/02/15 12:03:46;;;;;;;6.72;5.72;;;14.40;99.90;;;;;;5033148;28;20059;-87
2023/02/15 12:06:27;;;;;;;5.70;4.88;;;14.50;99.90;;;;;;5028716;28;20090;-86
2023/02/15 12:09:02;;;;;;;6.38;4.97;;;14.70;99.90;;;;;;5038610;28;20044;-85
2023/02/15 12:11:35;;;;;;;5.57;4.72;;;14.90;99.90;;;;;;5030678;28;20057;-86
2023/02/15 12:14:07;;;;;;;5.57;4.85;;;15.10;99.90;;;;;;5037572;28;20480;-81
2023/02/15 12:17:00;;;;;;;4.93;4.35;;;15.30;99.90;;;;;;5022222;28;20102;-81
2023/02/15 12:19:37;;;;;;;4.55;3.75;;;15.50;99.90;;;;;;5036096;28;20170;-80
2023/02/15 12:22:04;;;;;;;4.28;3.80;;;15.50;99.90;;;;;;5039406;28;20061;-79
2023/02/15 12:24:34;;;;;;;5.82;4.75;;;15.50;99.90;;;;;;5039299;28;20040;-80
2023/02/15 12:27:03;;;;;;;7.55;5.80;;;15.70;99.90;;;;;;5031259;28;20052;-79
2023/02/15 12:29:51;;;;;;;5.38;4.85;;;15.50;99.90;;;;;;5036266;28;20239;-79
2023/02/15 12:32:26;;;;;;;6.35;5.70;;;15.40;99.90;;;;;;5030861;28;21852;-81
2023/02/15 12:34:59;;;;;;;6.55;5.18;;;15.20;99.90;;;;;;5012918;28;20057;-80
2023/02/15 12:37:28;;;;;;;5.18;4.40;;;15.30;99.90;;;;;;5025632;28;20069;-82
2023/02/15 12:39:59;;;;;;;5.57;4.72;;;15.40;99.90;;;;;;5016700;28;20114;-80
2023/02/15 12:42:28;;;;;;;5.78;3.92;;;15.60;99.90;;;;;;5036163;28;20593;-80
2023/02/15 12:45:04;;;;;;;5.45;3.88;;;15.80;99.90;;;;;;4996512;28;20042;-80
2023/02/15 12:47:32;;;;;;;3.90;3.53;;;15.90;99.90;;;;;;4984284;28;20064;-80
2023/02/15 12:50:16;;;;;;;4.70;3.78;;;16.10;99.90;;;;;;5021986;28;20049;-80
2023/02/15 12:52:48;;;;;;;3.80;3.42;;;16.20;99.90;;;;;;5013842;28;20057;-81
2023/02/15 12:55:22;;;;;;;3.63;3.13;;;16.40;99.90;;;;;;5002676;28;20049;-84
2023/02/15 12:57:50;;;;;;;5.22;3.70;;;16.80;99.90;;;;;;5020133;28;20071;-84
2023/02/15 13:00:20;;;;;;;5.88;4.13;;;16.90;99.90;;;;;;5016429;28;20080;-81
2023/02/15 13:02:49;;;;;;;5.00;4.47;;;17.00;99.90;;;;;;5018534;28;20057;-81
2023/02/15 13:05:18;;;;;;;6.38;4.47;;;17.00;99.90;;;;;;4982012;28;20054;-81
2023/02/15 13:07:53;;;;;;;5.63;3.80;;;17.20;99.80;;;;;;5003671;28;20061;-81
2023/02/15 13:10:24;;;;;;;4.15;3.67;;;17.40;99.70;;;;;;5011519;28;20184;-81
2023/02/15 13:12:53;;;;;;;6.82;4.78;;;17.50;99.10;;;;;;5022041;28;20151;-81
2023/02/15 13:15:25;;;;;;;4.03;3.63;;;17.50;99.20;;;;;;5005726;28;20127;-82
2023/02/15 13:17:52;;;;;;;3.63;3.13;;;17.90;99.30;;;;;;4989485;28;20199;-82
2023/02/15 13:20:22;;;;;;;3.72;2.97;;;18.30;99.10;;;;;;4989069;28;20049;-82
2023/02/15 13:22:57;;;;;;;4.30;2.88;;;18.80;98.00;;;;;;4990464;28;20115;-82
2023/02/15 13:25:25;;;;;;;3.47;2.50;;;19.00;97.40;;;;;;4973585;28;20538;-82
2023/02/15 13:27:54;;;;;;;2.60;2.40;;;19.20;97.00;;;;;;4973024;28;20061;-82
2023/02/15 13:30:25;;;;;;;4.22;2.80;;;19.50;96.40;;;;;;5003901;28;20416;-82
2023/02/15 13:32:56;;;;;;;2.78;2.38;;;19.60;96.10;;;;;;5005142;28;20053;-82
2023/02/15 13:35:22;;;;;;;3.20;2.17;;;19.80;95.20;;;;;;4989082;28;20475;-82
2023/02/15 13:38:12;;;;;;;3.17;2.30;;;20.00;94.50;;;;;;4989394;28;20076;-82
2023/02/15 13:40:49;;;;;;;4.63;2.47;;;20.00;94.70;;;;;;5006086;28;20053;-82
2023/02/15 13:43:25;;;;;;;3.03;2.70;;;19.90;94.60;;;;;;5003697;28;20504;-82
2023/02/15 13:45:55;;;;;;;3.05;2.47;;;19.80;94.40;;;;;;4988261;28;20085;-83
2023/02/15 13:48:48;;;;;;;3.35;2.30;;;19.90;94.30;;;;;;5005081;28;20178;-82